Search for airport 
image banner adimage banner ad
image banner ad

SVSA - San Antonio Del Tachira / Gral. Juan Vicente Gomez Intl

Situé à San Antonio Del Tachira, Venezuela

ICAO - SVSA, IATA - SVZ

Données fournies par Airmate  

Information générale

Coordonnées: N7°50'26" W72°26'23"
Élévation : 1317 feet MSL.
 
Voir autres Aéroports à Tachira

Données opérationnelles

Special qualification required
Heure actuelle UTC:
Heure actuelle locale:
Météo
TAF: TAF SVSA 011600Z 0118/0218 31004KT 9999 BKN016 TX33/2719Z TN20/2708Z BECMG 0118/0122 27004KT 9999 BKN013
Voir NOTAMs / SUP AIP / TFR affectant cet aéroport [VIEW]
Fréquences de communication: [VIEW]

Pistes:

Identifiant RWYQFULongueur (ft)Largeur (ft)SurfaceLDA (ft)
17164°6070131ASP
35344°6070131

Coordonnées de l'aéroport

Adresse: San Antonio Del Tachira Venezuela

Vue satellite de SVSA